KVIH/VIH METAR and TAF weather

Enter ICAO airport designator
Station Type Date Time Source
KVIH METAR 2022/01/26 06:53 UTC NOAA

KVIH 260653Z AUTO 36005KT 10SM CLR M12/M18 A3048 RMK AO2 SLP341 T11171178


Station Type Date Time Source
KVIH Decoded METAR 2022/01/26 06:53 UTC NOAA

ROLLA/VICHY ROLLA NATIONAL, MO, United States (KVIH) 38-08N 91-46W 333M
Jan 26, 2022 - 01:53 AM EST / 2022.01.26 0653 UTC
Wind: from the N (360 degrees) at 6 MPH (5 KT):0
Visibility: 10 mile(s):0
Sky conditions: clear
Temperature: 10.9 F (-11.7 C)
Windchill: 1 F (-17 C):1
Dew Point: -0.0 F (-17.8 C)
Relative Humidity: 60%
Pressure (altimeter): 30.48 in. Hg (1032 hPa)
ob: KVIH 260653Z AUTO 36005KT 10SM CLR M12/M18 A3048 RMK AO2 SLP341 T11171178
cycle: 7

Station Type Date Time Source
KVIH TAF UTC NOAA

Error!

Example: see airport list